Ischia Jet — IOBI — position and weather

sailwx.info

Track history (hours):
 
Tides and Currents Weather Stations Pressure Air Temp Water Temp Dewpoint Dewpoint Depression Visibility Wind Speed Wind Dir Waves Ship Positions

Ischia Jet

Last reported at 2016-May-27 15:08 UTC. Time now 2016-May-27 22:05 UTC.
Position N 40°42' E 014°29'.

Length 42 m; draft 1.2 m.

Type: Passenger vessel. MMSI: 247048700.

Date/timePositionNaut miles runAvg speedWind from/ knotsBaromVisibWave heightAir tempDewpointWater temp
2016-May-27 15:08N 40°42' E 014°29'610.6
2016-May-27 14:33N 40°38' E 014°21'7 7.3
2016-May-27 13:33N 40°33' E 014°14'8 7.4
2016-May-27 12:31N 40°38' E 014°23'8 7.9
2016-May-27 11:32N 40°33' E 014°14'0 0.4
2016-May-27 10:33N 40°34' E 014°14'2 2.2
2016-May-27 09:33N 40°35' E 014°17'5 5.0
2016-May-27 08:31N 40°38' E 014°22'8 7.9
2016-May-27 07:34N 40°33' E 014°15'1312.5
2016-May-27 06:29N 40°42' E 014°29'0 0.0
2016-May-26 17:03N 40°42' E 014°29'1121.0
2016-May-26 16:33N 40°48' E 014°18'1110.8
2016-May-26 15:33N 40°38' E 014°16'5 4.9
2016-May-26 14:33N 40°38' E 014°22'6 6.1
2016-May-26 13:33N 40°35' E 014°16'16 7.6
2016-May-26 11:30N 40°50' E 014°16'1717.7
2016-May-26 10:33N 40°33' E 014°14'4 4.3
2016-May-26 09:33N 40°36' E 014°18'4 3.5
2016-May-26 08:33N 40°38' E 014°23'8 7.6
2016-May-26 07:33N 40°33' E 014°15'1312.6
2016-May-26 06:29N 40°42' E 014°29'0 0.0
2016-May-26 05:19N 40°42' E 014°29'1 0.1
2016-May-25 16:33N 40°41' E 014°27'1212.2
2016-May-25 15:33N 40°33' E 014°14'8 7.8
2016-May-25 14:33N 40°38' E 014°23'6 5.8
2016-May-25 13:33N 40°35' E 014°16'15 6.9
2016-May-25 11:26N 40°50' E 014°17'1718.7
2016-May-25 10:34N 40°33' E 014°14'2 2.3
2016-May-25 09:33N 40°35' E 014°17'5 5.1
2016-May-25 08:31N 40°38' E 014°23'8 7.8
2016-May-25 07:33N 40°33' E 014°15'13 0.7
2016-May-24 11:26N 40°42' E 014°29'0 0.0
2016-May-24 10:30N 40°42' E 014°29'0 0.0
2016-May-24 09:20N 40°42' E 014°29'0 0.0
2016-May-24 08:29N 40°42' E 014°29'0 0.0
2016-May-24 07:26N 40°42' E 014°29'0 0.0
2016-May-24 06:31N 40°42' E 014°29'0 0.0
2016-May-24 05:30N 40°42' E 014°29'2 0.2
2016-May-23 16:34N 40°41' E 014°26'1211.6
2016-May-23 15:33N 40°33' E 014°14'3 3.3
2016-May-23 14:34N 40°36' E 014°18'3 3.3
2016-May-23 13:33N 40°33' E 014°14'1 1.4
2016-May-23 12:33N 40°35' E 014°15'1 0.5
2016-May-23 11:33N 40°34' E 014°15'1 0.5
2016-May-23 10:32N 40°34' E 014°14'2 1.8
2016-May-23 09:33N 40°35' E 014°17'6 5.6
2016-May-23 08:33N 40°38' E 014°23'8 7.7
2016-May-23 07:33N 40°33' E 014°14'1413.6
2016-May-23 06:34N 40°42' E 014°29'0 0.1
2016-May-23 05:33N 40°42' E 014°29'1 0.1
2016-May-22 16:34N 40°42' E 014°28'1312.8
2016-May-22 15:32N 40°33' E 014°14'8 7.9
2016-May-22 14:33N 40°38' E 014°23'8 7.8
2016-May-22 13:33N 40°33' E 014°14'8 7.6
2016-May-22 12:33N 40°38' E 014°23'8 7.6
2016-May-22 11:33N 40°33' E 014°14'0 0.0
2016-May-22 10:34N 40°33' E 014°14'0 0.2
2016-May-22 09:34N 40°33' E 014°15'1613.5
2016-May-22 08:21N 40°50' E 014°17'12 4.3
2016-May-22 05:33N 40°42' E 014°29'2 0.2
2016-May-21 16:33N 40°41' E 014°26'1111.4
2016-May-21 15:33N 40°33' E 014°14'0 0.0
2016-May-21 14:33N 40°33' E 014°14'3 3.1
2016-May-21 13:33N 40°36' E 014°16'1413.4
2016-May-21 12:32N 40°50' E 014°16'1716.8
2016-May-21 11:33N 40°33' E 014°14'0 0.0
2016-May-21 10:33N 40°33' E 014°14'1 1.3
2016-May-21 09:33N 40°34' E 014°16'6 6.4
2016-May-21 08:33N 40°38' E 014°23'8 7.6
2016-May-21 07:33N 40°33' E 014°14'1413.5
2016-May-21 06:33N 40°42' E 014°29'0 0.0
2016-May-21 05:32N 40°42' E 014°29'0 0.0
2016-May-20 17:27N 40°42' E 014°29'0 0.0
2016-May-20 16:33N 40°42' E 014°29'0 0.0
2016-May-20 15:31N 40°42' E 014°29'6 6.1
2016-May-20 14:33N 40°38' E 014°22'7 6.5
2016-May-20 13:32N 40°33' E 014°16'1 1.2
2016-May-20 12:33N 40°33' E 014°15'0 0.0
2016-May-20 11:33N 40°33' E 014°15'0 0.0
2016-May-20 10:33N 40°33' E 014°15'3 2.8
2016-May-20 09:33N 40°35' E 014°18'5 4.7
2016-May-20 08:33N 40°38' E 014°23'7 7.3
2016-May-20 07:33N 40°34' E 014°15'1313.2
2016-May-20 06:34N 40°42' E 014°29'0 0.1
2016-May-20 05:34N 40°42' E 014°29'7 0.2
2016-May-18 18:34N 40°38' E 014°20'7 3.3
2016-May-18 16:27N 40°38' E 014°29'1213.4
2016-May-18 15:33N 40°33' E 014°14'  
Track history (hours):
 
Tides and Currents Weather Stations Pressure Air Temp Water Temp Dewpoint Dewpoint Depression Visibility Wind Speed Wind Dir Waves Ship Positions

Ischia Jet

Last reported at 2016-May-27 15:08 UTC. Time now 2016-May-27 22:05 UTC.
Position N 40°42' E 014°29'.

Length 42 m; draft 1.2 m.

Type: Passenger vessel. MMSI: 247048700.

Date/timePositionNaut miles runAvg speedWind from/ knotsBaromVisibWave heightAir tempDewpointWater temp
2016-May-27 15:08N 40°42' E 014°29'610.6
2016-May-27 14:33N 40°38' E 014°21'7 7.3
2016-May-27 13:33N 40°33' E 014°14'8 7.4
2016-May-27 12:31N 40°38' E 014°23'8 7.9
2016-May-27 11:32N 40°33' E 014°14'0 0.4
2016-May-27 10:33N 40°34' E 014°14'2 2.2
2016-May-27 09:33N 40°35' E 014°17'5 5.0
2016-May-27 08:31N 40°38' E 014°22'8 7.9
2016-May-27 07:34N 40°33' E 014°15'1312.5
2016-May-27 06:29N 40°42' E 014°29'0 0.0
2016-May-26 17:03N 40°42' E 014°29'1121.0
2016-May-26 16:33N 40°48' E 014°18'1110.8
2016-May-26 15:33N 40°38' E 014°16'5 4.9
2016-May-26 14:33N 40°38' E 014°22'6 6.1
2016-May-26 13:33N 40°35' E 014°16'16 7.6
2016-May-26 11:30N 40°50' E 014°16'1717.7
2016-May-26 10:33N 40°33' E 014°14'4 4.3
2016-May-26 09:33N 40°36' E 014°18'4 3.5
2016-May-26 08:33N 40°38' E 014°23'8 7.6
2016-May-26 07:33N 40°33' E 014°15'1312.6
2016-May-26 06:29N 40°42' E 014°29'0 0.0
2016-May-26 05:19N 40°42' E 014°29'1 0.1
2016-May-25 16:33N 40°41' E 014°27'1212.2
2016-May-25 15:33N 40°33' E 014°14'8 7.8
2016-May-25 14:33N 40°38' E 014°23'6 5.8
2016-May-25 13:33N 40°35' E 014°16'15 6.9
2016-May-25 11:26N 40°50' E 014°17'1718.7
2016-May-25 10:34N 40°33' E 014°14'2 2.3
2016-May-25 09:33N 40°35' E 014°17'5 5.1
2016-May-25 08:31N 40°38' E 014°23'8 7.8
2016-May-25 07:33N 40°33' E 014°15'13 0.7
2016-May-24 11:26N 40°42' E 014°29'0 0.0
2016-May-24 10:30N 40°42' E 014°29'0 0.0
2016-May-24 09:20N 40°42' E 014°29'0 0.0
2016-May-24 08:29N 40°42' E 014°29'0 0.0
2016-May-24 07:26N 40°42' E 014°29'0 0.0
2016-May-24 06:31N 40°42' E 014°29'0 0.0
2016-May-24 05:30N 40°42' E 014°29'2 0.2
2016-May-23 16:34N 40°41' E 014°26'1211.6
2016-May-23 15:33N 40°33' E 014°14'3 3.3
2016-May-23 14:34N 40°36' E 014°18'3 3.3
2016-May-23 13:33N 40°33' E 014°14'1 1.4
2016-May-23 12:33N 40°35' E 014°15'1 0.5
2016-May-23 11:33N 40°34' E 014°15'1 0.5
2016-May-23 10:32N 40°34' E 014°14'2 1.8
2016-May-23 09:33N 40°35' E 014°17'6 5.6
2016-May-23 08:33N 40°38' E 014°23'8 7.7
2016-May-23 07:33N 40°33' E 014°14'1413.6
2016-May-23 06:34N 40°42' E 014°29'0 0.1
2016-May-23 05:33N 40°42' E 014°29'1 0.1
2016-May-22 16:34N 40°42' E 014°28'1312.8
2016-May-22 15:32N 40°33' E 014°14'8 7.9
2016-May-22 14:33N 40°38' E 014°23'8 7.8
2016-May-22 13:33N 40°33' E 014°14'8 7.6
2016-May-22 12:33N 40°38' E 014°23'8 7.6
2016-May-22 11:33N 40°33' E 014°14'0 0.0
2016-May-22 10:34N 40°33' E 014°14'0 0.2
2016-May-22 09:34N 40°33' E 014°15'1613.5
2016-May-22 08:21N 40°50' E 014°17'12 4.3
2016-May-22 05:33N 40°42' E 014°29'2 0.2
2016-May-21 16:33N 40°41' E 014°26'1111.4
2016-May-21 15:33N 40°33' E 014°14'0 0.0
2016-May-21 14:33N 40°33' E 014°14'3 3.1
2016-May-21 13:33N 40°36' E 014°16'1413.4
2016-May-21 12:32N 40°50' E 014°16'1716.8
2016-May-21 11:33N 40°33' E 014°14'0 0.0
2016-May-21 10:33N 40°33' E 014°14'1 1.3
2016-May-21 09:33N 40°34' E 014°16'6 6.4
2016-May-21 08:33N 40°38' E 014°23'8 7.6
2016-May-21 07:33N 40°33' E 014°14'1413.5
2016-May-21 06:33N 40°42' E 014°29'0 0.0
2016-May-21 05:32N 40°42' E 014°29'0 0.0
2016-May-20 17:27N 40°42' E 014°29'0 0.0
2016-May-20 16:33N 40°42' E 014°29'0 0.0
2016-May-20 15:31N 40°42' E 014°29'6 6.1
2016-May-20 14:33N 40°38' E 014°22'7 6.5
2016-May-20 13:32N 40°33' E 014°16'1 1.2
2016-May-20 12:33N 40°33' E 014°15'0 0.0
2016-May-20 11:33N 40°33' E 014°15'0 0.0
2016-May-20 10:33N 40°33' E 014°15'3 2.8
2016-May-20 09:33N 40°35' E 014°18'5 4.7
2016-May-20 08:33N 40°38' E 014°23'7 7.3
2016-May-20 07:33N 40°34' E 014°15'1313.2
2016-May-20 06:34N 40°42' E 014°29'0 0.1
2016-May-20 05:34N 40°42' E 014°29'7 0.2
2016-May-18 18:34N 40°38' E 014°20'7 3.3
2016-May-18 16:27N 40°38' E 014°29'1213.4
2016-May-18 15:33N 40°33' E 014°14'  

Dump ship's entire track history